createdAt,value
2023-03-15T00:01:19.761Z,100410.38
2023-03-15T00:03:46.671Z,100409.19
2023-03-15T00:06:14.091Z,100419.22
2023-03-15T00:08:40.494Z,100412.53
2023-03-15T00:11:07.157Z,100421.28
2023-03-15T00:13:33.783Z,100426.09
2023-03-15T00:16:02.955Z,100435.66
2023-03-15T00:18:29.719Z,100425.41
2023-03-15T00:20:56.152Z,100424.47
2023-03-15T00:23:22.659Z,100418.00
2023-03-15T00:25:50.486Z,100425.41
2023-03-15T00:28:17.299Z,100422.22
2023-03-15T00:30:44.447Z,100401.28
2023-03-15T00:33:13.740Z,100403.94
2023-03-15T00:35:45.070Z,100403.72
2023-03-15T00:38:11.759Z,100406.28
2023-03-15T00:40:38.273Z,100416.22
2023-03-15T00:43:04.778Z,100412.03
2023-03-15T00:45:31.185Z,100412.19
2023-03-15T00:47:57.595Z,100411.03
2023-03-15T00:50:24.067Z,100422.47
2023-03-15T00:52:50.470Z,100417.13
2023-03-15T00:55:18.495Z,100423.16
2023-03-15T00:57:45.756Z,100425.00
2023-03-15T01:00:20.366Z,100425.34
2023-03-15T01:02:47.189Z,100418.13
2023-03-15T01:05:14.140Z,100424.31
2023-03-15T01:07:40.611Z,100420.25
2023-03-15T01:10:07.438Z,100421.44
2023-03-15T01:12:34.273Z,100422.63
2023-03-15T01:15:01.843Z,100417.81
2023-03-15T01:17:28.314Z,100415.88
2023-03-15T01:19:54.947Z,100412.00
2023-03-15T01:22:21.575Z,100416.53
2023-03-15T01:24:47.959Z,100418.47
2023-03-15T01:27:14.361Z,100418.56
2023-03-15T01:29:40.763Z,100430.94
2023-03-15T01:32:07.365Z,100420.59
2023-03-15T01:34:34.667Z,100422.81
2023-03-15T01:37:02.734Z,100413.72
2023-03-15T01:39:30.061Z,100415.06
2023-03-15T01:41:56.684Z,100416.28
2023-03-15T01:44:24.540Z,100408.63
2023-03-15T01:46:51.272Z,100412.66
2023-03-15T01:49:27.326Z,100408.34
2023-03-15T01:52:03.245Z,100423.38
2023-03-15T01:54:33.097Z,100421.59
2023-03-15T01:57:08.642Z,100429.38
2023-03-15T01:59:38.010Z,100429.41
2023-03-15T02:02:05.421Z,100429.56
2023-03-15T02:04:38.206Z,100444.75
2023-03-15T02:07:05.164Z,100450.13
2023-03-15T02:09:41.631Z,100439.63
2023-03-15T02:12:09.269Z,100446.03
2023-03-15T02:14:35.712Z,100446.53
2023-03-15T02:17:02.267Z,100451.03
2023-03-15T02:19:55.922Z,100454.41
2023-03-15T02:22:31.444Z,100464.91
2023-03-15T02:25:04.389Z,100456.44
2023-03-15T02:27:32.243Z,100458.72
2023-03-15T02:29:59.044Z,100462.84
2023-03-15T02:32:25.601Z,100468.91
2023-03-15T02:34:51.990Z,100469.16
2023-03-15T02:37:18.374Z,100467.69
2023-03-15T02:39:44.752Z,100470.53
2023-03-15T02:42:11.312Z,100473.88
2023-03-15T02:44:40.210Z,100464.84
2023-03-15T02:47:35.940Z,100474.75
2023-03-15T02:50:02.311Z,100483.31
2023-03-15T02:52:28.713Z,100489.25
2023-03-15T02:54:55.135Z,100490.31
2023-03-15T02:57:21.616Z,100485.16
2023-03-15T02:59:50.688Z,100490.75
2023-03-15T03:02:17.204Z,100496.09
2023-03-15T03:04:43.650Z,100503.09
2023-03-15T03:07:10.210Z,100509.06
2023-03-15T03:09:36.595Z,100506.75
2023-03-15T03:12:03.287Z,100505.63
2023-03-15T03:14:29.650Z,100515.72
2023-03-15T03:16:56.081Z,100518.69
2023-03-15T03:19:25.548Z,100521.66
2023-03-15T03:21:56.838Z,100533.88
2023-03-15T03:24:25.716Z,100526.34
2023-03-15T03:26:52.197Z,100534.41
2023-03-15T03:29:18.554Z,100529.88
2023-03-15T03:31:45.013Z,100544.75
2023-03-15T03:34:14.505Z,100550.22
2023-03-15T03:36:41.972Z,100563.31
2023-03-15T03:39:08.626Z,100558.72
2023-03-15T03:41:34.999Z,100562.25
2023-03-15T03:44:01.411Z,100564.59
2023-03-15T03:46:28.454Z,100578.72
2023-03-15T03:48:55.145Z,100578.25
2023-03-15T03:51:21.716Z,100575.91
2023-03-15T03:53:48.097Z,100584.22
2023-03-15T03:56:14.471Z,100579.78
2023-03-15T03:58:41.449Z,100576.88
2023-03-15T04:01:07.860Z,100581.81
2023-03-15T04:03:34.289Z,100589.88
2023-03-15T04:06:01.526Z,100592.31
2023-03-15T04:08:28.149Z,100607.19
2023-03-15T04:10:56.399Z,100603.06
2023-03-15T04:13:23.852Z,100607.31
2023-03-15T04:15:51.065Z,100615.31
2023-03-15T04:18:18.249Z,100620.25
2023-03-15T04:20:46.642Z,100611.47
2023-03-15T04:23:14.607Z,100621.56
2023-03-15T04:25:41.866Z,100624.75
2023-03-15T04:28:14.374Z,100620.28
2023-03-15T04:30:42.619Z,100625.28
2023-03-15T04:33:09.089Z,100625.72
2023-03-15T04:35:37.205Z,100619.13
2023-03-15T04:38:04.837Z,100616.84
2023-03-15T04:40:34.952Z,100624.81
2023-03-15T04:43:03.510Z,100626.97
2023-03-15T04:45:31.608Z,100623.66
2023-03-15T04:47:58.207Z,100633.03
2023-03-15T04:50:25.366Z,100642.38
2023-03-15T04:52:51.770Z,100651.38
2023-03-15T04:55:18.139Z,100650.94
2023-03-15T04:57:44.537Z,100652.09
2023-03-15T05:00:14.780Z,100668.13
2023-03-15T05:02:41.724Z,100663.88
2023-03-15T05:05:12.627Z,100668.16
2023-03-15T05:07:39.655Z,100661.03
2023-03-15T05:10:06.886Z,100666.53
2023-03-15T05:12:36.549Z,100661.38
2023-03-15T05:15:03.060Z,100662.94
2023-03-15T05:17:29.457Z,100664.81
2023-03-15T05:19:55.831Z,100656.88
2023-03-15T05:22:25.577Z,100665.09
2023-03-15T05:24:53.598Z,100665.06
2023-03-15T05:27:20.644Z,100678.94
2023-03-15T05:29:47.092Z,100684.63
2023-03-15T05:32:13.861Z,100682.22
2023-03-15T05:34:40.357Z,100689.22
2023-03-15T05:37:06.795Z,100699.19
2023-03-15T05:39:34.598Z,100699.94
2023-03-15T05:42:01.980Z,100700.94
2023-03-15T05:44:28.454Z,100713.34
2023-03-15T05:46:54.827Z,100710.69
2023-03-15T05:49:21.352Z,100716.06
2023-03-15T05:51:47.852Z,100723.69
2023-03-15T05:54:14.240Z,100729.16
2023-03-15T05:56:40.609Z,100731.13
2023-03-15T05:59:06.992Z,100741.44
2023-03-15T06:01:33.545Z,100751.97
2023-03-15T06:04:00.001Z,100745.72
2023-03-15T06:06:26.409Z,100748.91
2023-03-15T06:08:52.785Z,100754.56
2023-03-15T06:11:19.169Z,100757.81
2023-03-15T06:13:45.553Z,100766.66
2023-03-15T06:16:12.033Z,100778.09
2023-03-15T06:18:38.485Z,100780.81
2023-03-15T06:21:04.942Z,100773.28
2023-03-15T06:23:31.320Z,100786.06
2023-03-15T06:25:57.693Z,100775.44
2023-03-15T06:28:24.120Z,100788.31
2023-03-15T06:30:50.603Z,100790.16
2023-03-15T06:33:17.002Z,100797.94
2023-03-15T06:35:43.523Z,100796.88
2023-03-15T06:38:11.866Z,100800.41
2023-03-15T06:40:38.378Z,100801.91
2023-03-15T06:43:06.517Z,100811.97
2023-03-15T06:45:33.580Z,100802.25
2023-03-15T06:48:00.089Z,100814.25
2023-03-15T06:50:29.568Z,100816.09
2023-03-15T06:53:03.795Z,100827.19
2023-03-15T06:55:30.187Z,100821.19
2023-03-15T06:57:56.629Z,100835.44
2023-03-15T07:00:23.165Z,100841.78
2023-03-15T07:02:49.602Z,100838.69
2023-03-15T07:05:16.056Z,100837.06
2023-03-15T07:07:42.442Z,100842.91
2023-03-15T07:10:09.434Z,100842.78
2023-03-15T07:12:35.961Z,100842.25
2023-03-15T07:15:02.431Z,100845.06
2023-03-15T07:17:28.831Z,100858.00
2023-03-15T07:19:56.804Z,100858.84
2023-03-15T07:22:23.591Z,100864.63
2023-03-15T07:24:49.993Z,100866.81
2023-03-15T07:27:19.076Z,100864.66
2023-03-15T07:29:45.751Z,100870.78
2023-03-15T07:32:12.156Z,100865.44
2023-03-15T07:34:38.542Z,100867.97
2023-03-15T07:37:05.017Z,100869.72
2023-03-15T07:39:32.497Z,100876.78
2023-03-15T07:41:59.531Z,100882.16
2023-03-15T07:44:25.937Z,100882.16
2023-03-15T07:46:52.484Z,100886.41
2023-03-15T07:49:18.941Z,100894.84
2023-03-15T07:51:45.329Z,100895.41
2023-03-15T07:54:11.747Z,100890.44
2023-03-15T07:56:38.181Z,100889.53
2023-03-15T07:59:04.553Z,100896.47
2023-03-15T08:01:31.080Z,100892.81
2023-03-15T08:03:57.492Z,100904.34
2023-03-15T08:06:24.283Z,100905.19
2023-03-15T08:08:51.206Z,100922.75
2023-03-15T08:11:17.579Z,100918.19
2023-03-15T08:13:43.942Z,100928.66
2023-03-15T08:16:10.410Z,100930.16
2023-03-15T08:18:36.821Z,100938.03
2023-03-15T08:21:04.090Z,100950.50
2023-03-15T08:23:31.130Z,100951.56
2023-03-15T08:25:57.986Z,100960.91
2023-03-15T08:28:24.376Z,100964.75
2023-03-15T08:30:50.761Z,100959.72
2023-03-15T08:33:17.423Z,100969.47
2023-03-15T08:35:43.849Z,100978.91
2023-03-15T08:38:10.335Z,100977.50
2023-03-15T08:40:38.297Z,100981.63
2023-03-15T08:43:05.378Z,100983.25
2023-03-15T08:45:34.910Z,100982.22
2023-03-15T08:48:09.358Z,100997.75
2023-03-15T08:50:36.816Z,101002.25
2023-03-15T08:53:03.213Z,100997.38
2023-03-15T08:55:29.599Z,101005.06
2023-03-15T08:57:56.065Z,101008.78
2023-03-15T09:00:25.345Z,101008.09
2023-03-15T09:02:55.107Z,101017.13
2023-03-15T09:05:22.931Z,101014.53
2023-03-15T09:07:49.997Z,101015.50
2023-03-15T09:10:17.686Z,101015.63
2023-03-15T09:12:46.313Z,101028.78
2023-03-15T09:15:13.328Z,101019.66
2023-03-15T09:17:40.634Z,101019.72
2023-03-15T09:20:12.636Z,101011.63
2023-03-15T09:22:39.856Z,101013.00
2023-03-15T09:25:07.095Z,101013.25
2023-03-15T09:27:33.882Z,101025.56
2023-03-15T09:30:00.484Z,101029.28
2023-03-15T09:32:26.968Z,101026.09
2023-03-15T09:34:53.646Z,101025.31
2023-03-15T09:37:21.756Z,101037.69
2023-03-15T09:39:48.178Z,101041.13
2023-03-15T09:42:24.685Z,101038.38
2023-03-15T09:45:18.488Z,101030.06
2023-03-15T09:48:05.789Z,101031.13
2023-03-15T09:50:42.282Z,101035.94
2023-03-15T09:53:14.449Z,101041.81
2023-03-15T09:55:40.955Z,101042.59
2023-03-15T09:58:13.169Z,101045.31
2023-03-15T10:00:49.741Z,101035.63
2023-03-15T10:03:42.230Z,101038.75
2023-03-15T10:06:12.568Z,101037.88
2023-03-15T10:08:38.951Z,101031.81
2023-03-15T10:11:21.267Z,101023.56
2023-03-15T10:13:50.598Z,101041.50
2023-03-15T10:16:35.856Z,101041.66
2023-03-15T10:19:20.755Z,101051.94
2023-03-15T10:22:19.231Z,101040.78
2023-03-15T10:25:00.504Z,101048.81
2023-03-15T10:27:32.915Z,101046.06
2023-03-15T10:30:00.485Z,101053.75
2023-03-15T10:32:30.892Z,101055.88
2023-03-15T10:34:58.712Z,101058.31
2023-03-15T10:37:25.467Z,101056.03
2023-03-15T10:39:57.169Z,101038.06
2023-03-15T10:42:28.478Z,101035.97
2023-03-15T10:44:55.142Z,101036.28
2023-03-15T10:47:24.398Z,101039.94
2023-03-15T10:49:59.085Z,101039.44
2023-03-15T10:52:35.132Z,101037.50
2023-03-15T10:55:07.804Z,101038.94
2023-03-15T10:57:38.888Z,101048.34
2023-03-15T11:00:19.035Z,101050.81
2023-03-15T11:02:52.842Z,101041.97
2023-03-15T11:05:19.948Z,101029.84
2023-03-15T11:08:00.732Z,101045.19
2023-03-15T11:10:29.591Z,101054.66
2023-03-15T11:13:21.711Z,101044.38
2023-03-15T11:15:55.216Z,101047.75
2023-03-15T11:18:28.964Z,101050.00
2023-03-15T11:20:56.503Z,101050.75
2023-03-15T11:23:29.297Z,101052.03
2023-03-15T11:25:56.174Z,101055.53
2023-03-15T11:28:32.960Z,101055.81
2023-03-15T11:31:00.819Z,101054.97
2023-03-15T11:33:48.417Z,101059.75
2023-03-15T11:36:19.478Z,101054.63
2023-03-15T11:38:46.189Z,101045.19
2023-03-15T11:41:38.681Z,101053.22
2023-03-15T11:44:20.048Z,101055.13
2023-03-15T11:46:51.029Z,101053.78
2023-03-15T11:49:21.701Z,101059.50
2023-03-15T11:51:48.151Z,101061.72
2023-03-15T11:54:15.963Z,101066.81
2023-03-15T11:56:54.981Z,101071.91
2023-03-15T11:59:30.077Z,101065.41
2023-03-15T12:02:14.593Z,101065.66
2023-03-15T12:04:41.978Z,101064.53
2023-03-15T12:07:17.418Z,101064.06
2023-03-15T12:09:51.949Z,101060.53
2023-03-15T12:12:24.418Z,101047.72
2023-03-15T12:15:06.396Z,101041.94
2023-03-15T12:17:37.831Z,101058.50
2023-03-15T12:20:19.488Z,101057.34
2023-03-15T12:22:51.011Z,101049.97
2023-03-15T12:25:22.820Z,101038.44
2023-03-15T12:27:51.372Z,101047.69
2023-03-15T12:30:40.738Z,101053.72
2023-03-15T12:33:18.495Z,101043.72
2023-03-15T12:35:45.099Z,101047.69
2023-03-15T12:38:22.980Z,101041.75
2023-03-15T12:40:56.172Z,101041.81
2023-03-15T12:44:16.940Z,101042.59
2023-03-15T12:46:43.217Z,101034.63
2023-03-15T12:49:14.707Z,101043.44
2023-03-15T12:51:45.471Z,101049.59
2023-03-15T12:54:14.150Z,101050.38
2023-03-15T12:56:43.162Z,101059.28
2023-03-15T12:59:25.515Z,101057.16
2023-03-15T13:01:51.857Z,101058.81
2023-03-15T13:04:18.480Z,101064.56
2023-03-15T13:07:14.106Z,101064.31
2023-03-15T13:10:08.492Z,101047.63
2023-03-15T13:12:57.192Z,101046.34
2023-03-15T13:15:29.824Z,101040.25
2023-03-15T13:18:05.260Z,101031.13
2023-03-15T13:20:56.518Z,101052.34
2023-03-15T13:23:27.053Z,101059.44
2023-03-15T13:25:56.351Z,101062.38
2023-03-15T13:28:37.075Z,101064.06
2023-03-15T13:31:23.068Z,101070.59
2023-03-15T13:33:57.219Z,101063.50
2023-03-15T13:36:46.476Z,101066.69
2023-03-15T13:39:27.722Z,101072.53
2023-03-15T13:42:01.464Z,101081.03
2023-03-15T13:44:29.341Z,101066.66
2023-03-15T13:46:56.478Z,101049.34
2023-03-15T13:49:23.137Z,101028.84
2023-03-15T13:51:52.273Z,101014.13
2023-03-15T13:54:27.669Z,101020.13
2023-03-15T13:57:07.268Z,101018.72
2023-03-15T13:59:47.891Z,101010.00
2023-03-15T14:02:18.384Z,100997.88
2023-03-15T14:04:51.794Z,101012.50
2023-03-15T14:07:25.433Z,101023.56
2023-03-15T14:10:23.542Z,101016.53
2023-03-15T14:12:50.730Z,101028.81
2023-03-15T14:15:36.200Z,101039.41
2023-03-15T14:18:08.565Z,101043.03
2023-03-15T14:20:40.793Z,101041.47
2023-03-15T14:23:13.237Z,101039.06
2023-03-15T14:25:39.801Z,101059.09
2023-03-15T14:28:06.866Z,101046.69
2023-03-15T14:30:36.280Z,101039.06
2023-03-15T14:33:06.996Z,101043.75
2023-03-15T14:35:36.372Z,101043.84
2023-03-15T14:38:19.694Z,101045.91
2023-03-15T14:40:46.143Z,101044.56
2023-03-15T14:43:12.509Z,101043.41
2023-03-15T14:45:41.100Z,101037.44
2023-03-15T14:48:14.730Z,101063.63
2023-03-15T14:50:43.225Z,101069.53
2023-03-15T14:53:14.875Z,101084.41
2023-03-15T14:55:41.251Z,101080.03
2023-03-15T14:58:14.834Z,101082.56
2023-03-15T15:00:42.269Z,101086.28
2023-03-15T15:03:33.310Z,101088.44
2023-03-15T15:06:00.687Z,101094.13
2023-03-15T15:08:27.586Z,101096.06
2023-03-15T15:10:56.280Z,101098.63
2023-03-15T15:13:28.312Z,101100.91
2023-03-15T15:15:56.805Z,101100.31
2023-03-15T15:18:24.873Z,101099.09
2023-03-15T15:20:55.604Z,101098.38
2023-03-15T15:23:28.220Z,101096.41
2023-03-15T15:25:58.103Z,101102.50
2023-03-15T15:28:34.625Z,101101.00
2023-03-15T15:31:02.101Z,101105.78
2023-03-15T15:33:28.488Z,101108.50
2023-03-15T15:35:56.011Z,101103.72
2023-03-15T15:38:32.941Z,101100.31
2023-03-15T15:40:59.395Z,101103.69
2023-03-15T15:43:25.795Z,101105.38
2023-03-15T15:45:52.213Z,101108.22
2023-03-15T15:48:18.580Z,101104.44
2023-03-15T15:50:44.938Z,101104.31
2023-03-15T15:53:16.185Z,101102.41
2023-03-15T15:55:44.194Z,101090.69
2023-03-15T15:58:12.028Z,101089.16
2023-03-15T16:00:38.496Z,101092.03
2023-03-15T16:03:14.852Z,101096.16
2023-03-15T16:05:41.562Z,101088.53
2023-03-15T16:08:16.281Z,101098.53
2023-03-15T16:10:42.653Z,101098.25
2023-03-15T16:13:10.607Z,101090.09
2023-03-15T16:15:36.984Z,101100.91
2023-03-15T16:18:09.017Z,101101.63
2023-03-15T16:20:35.560Z,101102.94
2023-03-15T16:23:01.993Z,101100.22
2023-03-15T16:25:33.218Z,101103.38
2023-03-15T16:28:00.550Z,101102.44
2023-03-15T16:30:30.378Z,101108.34
2023-03-15T16:32:57.750Z,101105.94
2023-03-15T16:35:32.585Z,101102.44
2023-03-15T16:37:59.513Z,101111.03
2023-03-15T16:40:28.399Z,101112.38
2023-03-15T16:42:55.486Z,101118.50
2023-03-15T16:45:22.490Z,101115.38
2023-03-15T16:47:48.913Z,101118.09
2023-03-15T16:50:15.692Z,101115.94
2023-03-15T16:52:43.004Z,101121.19
2023-03-15T16:55:12.813Z,101117.34
2023-03-15T16:57:39.579Z,101124.13
2023-03-15T17:00:11.748Z,101123.97
2023-03-15T17:02:38.423Z,101124.22
2023-03-15T17:05:05.353Z,101134.28
2023-03-15T17:07:34.242Z,101135.16
2023-03-15T17:10:06.299Z,101138.22
2023-03-15T17:12:32.907Z,101139.59
2023-03-15T17:15:00.042Z,101141.06
2023-03-15T17:17:32.422Z,101146.41
2023-03-15T17:20:00.080Z,101150.09
2023-03-15T17:22:26.512Z,101146.78
2023-03-15T17:24:53.570Z,101150.56
2023-03-15T17:27:32.465Z,101144.75
2023-03-15T17:29:59.130Z,101138.25
2023-03-15T17:32:25.530Z,101149.16
2023-03-15T17:34:52.615Z,101150.56
2023-03-15T17:37:19.145Z,101154.53
2023-03-15T17:39:45.605Z,101161.41
2023-03-15T17:42:12.631Z,101164.09
2023-03-15T17:44:39.201Z,101163.22
2023-03-15T17:47:08.456Z,101169.44
2023-03-15T17:49:35.522Z,101175.16
2023-03-15T17:52:02.108Z,101176.22
2023-03-15T17:54:28.510Z,101176.78
2023-03-15T17:56:56.806Z,101179.06
2023-03-15T17:59:23.189Z,101178.00
2023-03-15T18:01:49.593Z,101186.16
2023-03-15T18:04:16.929Z,101184.94
2023-03-15T18:06:43.352Z,101185.72
2023-03-15T18:09:11.687Z,101184.19
2023-03-15T18:11:42.473Z,101192.16
2023-03-15T18:14:15.846Z,101186.63
2023-03-15T18:16:43.461Z,101179.19
2023-03-15T18:19:10.231Z,101181.88
2023-03-15T18:21:36.964Z,101196.34
2023-03-15T18:24:03.750Z,101195.53
2023-03-15T18:26:30.143Z,101199.28
2023-03-15T18:28:56.520Z,101194.41
2023-03-15T18:31:24.876Z,101200.38
2023-03-15T18:33:52.494Z,101200.59
2023-03-15T18:36:19.183Z,101206.31
2023-03-15T18:38:45.637Z,101208.00
2023-03-15T18:41:22.373Z,101214.06
2023-03-15T18:43:50.028Z,101210.63
2023-03-15T18:46:18.149Z,101214.38
2023-03-15T18:48:45.606Z,101218.41
2023-03-15T18:51:13.126Z,101215.75
2023-03-15T18:53:40.817Z,101217.91
2023-03-15T18:56:07.891Z,101216.25
2023-03-15T18:58:34.294Z,101215.88
2023-03-15T19:01:00.778Z,101219.53
2023-03-15T19:03:27.185Z,101223.13
2023-03-15T19:05:53.652Z,101230.56
2023-03-15T19:08:20.045Z,101233.47
2023-03-15T19:10:47.247Z,101226.50
2023-03-15T19:13:13.627Z,101228.28
2023-03-15T19:15:40.484Z,101235.75
2023-03-15T19:18:06.888Z,101228.78
2023-03-15T19:20:34.810Z,101230.84
2023-03-15T19:23:01.178Z,101232.84
2023-03-15T19:25:27.593Z,101230.28
2023-03-15T19:27:53.996Z,101229.75
2023-03-15T19:30:22.321Z,101238.19
2023-03-15T19:32:50.344Z,101234.94
2023-03-15T19:35:18.783Z,101236.03
2023-03-15T19:37:45.660Z,101228.97
2023-03-15T19:40:13.271Z,101234.09
2023-03-15T19:42:39.718Z,101241.00
2023-03-15T19:45:06.753Z,101245.47
2023-03-15T19:47:33.131Z,101250.56
2023-03-15T19:49:59.549Z,101240.00
2023-03-15T19:52:27.778Z,101247.03
2023-03-15T19:54:54.199Z,101237.34
2023-03-15T19:57:20.626Z,101249.00
2023-03-15T19:59:46.998Z,101252.31
2023-03-15T20:02:13.533Z,101249.09
2023-03-15T20:04:40.274Z,101256.63
2023-03-15T20:07:06.665Z,101258.00
2023-03-15T20:09:38.633Z,101261.66
2023-03-15T20:12:06.420Z,101265.19
2023-03-15T20:14:32.894Z,101268.44
2023-03-15T20:16:59.286Z,101276.13
2023-03-15T20:19:25.716Z,101268.97
2023-03-15T20:21:52.134Z,101281.16
2023-03-15T20:24:18.547Z,101280.44
2023-03-15T20:26:44.927Z,101281.78
2023-03-15T20:29:11.288Z,101278.81
2023-03-15T20:31:37.769Z,101280.03
2023-03-15T20:34:05.663Z,101274.59
2023-03-15T20:36:33.598Z,101274.31
2023-03-15T20:39:00.110Z,101281.22
2023-03-15T20:41:26.499Z,101273.34
2023-03-15T20:43:52.874Z,101274.75
2023-03-15T20:46:20.254Z,101271.66
2023-03-15T20:48:46.661Z,101275.78
2023-03-15T20:51:13.015Z,101272.06
2023-03-15T20:53:39.424Z,101281.47
2023-03-15T20:56:06.592Z,101278.75
2023-03-15T20:58:33.286Z,101281.38
2023-03-15T21:01:08.092Z,101274.50
2023-03-15T21:03:35.172Z,101273.38
2023-03-15T21:06:03.699Z,101271.25
2023-03-15T21:08:30.925Z,101272.75
2023-03-15T21:10:57.307Z,101268.19
2023-03-15T21:13:24.139Z,101268.44
2023-03-15T21:15:53.111Z,101261.94
2023-03-15T21:18:21.797Z,101262.34
2023-03-15T21:21:05.220Z,101274.03
2023-03-15T21:23:31.684Z,101264.44
2023-03-15T21:25:59.231Z,101261.38
2023-03-15T21:28:25.818Z,101266.25
2023-03-15T21:30:53.016Z,101260.00
2023-03-15T21:33:20.891Z,101268.22
2023-03-15T21:35:47.358Z,101261.41
2023-03-15T21:38:14.195Z,101258.78
2023-03-15T21:40:46.803Z,101257.81
2023-03-15T21:43:13.808Z,101257.84
2023-03-15T21:45:41.933Z,101263.88
2023-03-15T21:48:08.916Z,101262.53
2023-03-15T21:50:35.325Z,101257.25
2023-03-15T21:53:02.092Z,101259.00
2023-03-15T21:55:31.164Z,101253.34
2023-03-15T21:57:57.540Z,101252.53
2023-03-15T22:00:24.251Z,101261.16
2023-03-15T22:02:54.605Z,101257.16
2023-03-15T22:05:22.509Z,101248.63
2023-03-15T22:07:49.024Z,101255.31
2023-03-15T22:10:15.524Z,101251.91
2023-03-15T22:12:42.706Z,101245.97
2023-03-15T22:15:09.568Z,101258.22
2023-03-15T22:17:36.118Z,101260.53
2023-03-15T22:20:07.990Z,101256.91
2023-03-15T22:22:34.395Z,101243.09
2023-03-15T22:25:00.865Z,101257.28
2023-03-15T22:27:27.282Z,101254.22
2023-03-15T22:29:53.716Z,101249.34
2023-03-15T22:32:20.163Z,101243.91
2023-03-15T22:34:46.878Z,101243.66
2023-03-15T22:37:13.273Z,101238.44
2023-03-15T22:39:40.238Z,101240.72
2023-03-15T22:42:06.700Z,101238.03
2023-03-15T22:44:33.072Z,101244.44
2023-03-15T22:46:59.426Z,101231.81
2023-03-15T22:49:25.840Z,101230.03
2023-03-15T22:51:52.225Z,101223.19
2023-03-15T22:54:18.630Z,101228.28
2023-03-15T22:56:45.132Z,101232.16
2023-03-15T22:59:11.503Z,101229.97
2023-03-15T23:01:38.059Z,101218.84
2023-03-15T23:04:04.469Z,101219.84
2023-03-15T23:06:30.867Z,101218.41
2023-03-15T23:08:57.271Z,101220.50
2023-03-15T23:11:23.694Z,101219.97
2023-03-15T23:13:50.324Z,101225.38
2023-03-15T23:16:17.240Z,101225.03
2023-03-15T23:18:43.942Z,101219.06
2023-03-15T23:21:13.286Z,101223.84
2023-03-15T23:23:40.758Z,101230.78
2023-03-15T23:26:07.206Z,101228.84
2023-03-15T23:28:34.565Z,101233.53
2023-03-15T23:31:02.668Z,101234.28
2023-03-15T23:33:29.334Z,101233.94
2023-03-15T23:35:56.403Z,101244.88
2023-03-15T23:38:22.830Z,101249.50
2023-03-15T23:40:56.563Z,101236.16
2023-03-15T23:43:23.401Z,101232.31
2023-03-15T23:45:54.897Z,101236.53
2023-03-15T23:48:22.067Z,101229.50
2023-03-15T23:50:55.748Z,101228.88
2023-03-15T23:53:22.811Z,101235.19
2023-03-15T23:55:49.405Z,101227.94
2023-03-15T23:58:15.787Z,101231.00
